Time;durP1;ratioP1;P1;durP2;ratioP2;P2;SDS_P1;SDS_P2;PMS_P1;PMS_P2;Temp;Humidity;BMP_temperature;BMP_pressure;BME280_temperature;BME280_humidity;BME280_pressure;Samples;Min_cycle;Max_cycle;Signal;HPM_P1;HPM_P2
2021/08/17 00:01:35;;;;;;;5.25;0.52;;;12.10;99.90;;;;;;5116369;28;20020;-77
2021/08/17 00:04:01;;;;;;;9.38;0.20;;;12.10;99.90;;;;;;5116822;28;20072;-77
2021/08/17 00:06:30;;;;;;;3.92;0.20;;;12.10;99.90;;;;;;5098762;28;20008;-76
2021/08/17 00:08:55;;;;;;;3.22;0.17;;;12.10;99.90;;;;;;5097916;28;20016;-76
2021/08/17 00:11:21;;;;;;;2.67;0.57;;;12.10;99.90;;;;;;5098472;28;20073;-77
2021/08/17 00:13:47;;;;;;;3.75;0.38;;;12.10;99.90;;;;;;5098331;28;20020;-78
2021/08/17 00:16:13;;;;;;;5.28;0.47;;;12.10;99.90;;;;;;5098549;28;20016;-77
2021/08/17 00:18:39;;;;;;;10.35;0.38;;;12.00;99.90;;;;;;5117377;28;20022;-78
2021/08/17 00:21:04;;;;;;;7.38;0.35;;;12.00;99.90;;;;;;5116448;28;20020;-78
2021/08/17 00:23:30;;;;;;;2.30;0.10;;;12.00;99.90;;;;;;5097921;28;20067;-77
2021/08/17 00:25:56;;;;;;;5.35;0.40;;;12.00;99.90;;;;;;5116246;28;20049;-77
2021/08/17 00:28:21;;;;;;;3.08;0.10;;;11.90;99.90;;;;;;5098339;28;20019;-78
2021/08/17 00:30:47;;;;;;;3.90;0.20;;;11.90;99.90;;;;;;5098449;28;20061;-78
2021/08/17 00:33:12;;;;;;;4.82;0.85;;;11.90;99.90;;;;;;5098113;28;20499;-78
2021/08/17 00:35:38;;;;;;;10.48;0.63;;;11.90;99.90;;;;;;5098560;28;20058;-78
2021/08/17 00:38:04;;;;;;;3.55;0.13;;;11.90;99.90;;;;;;5098655;28;20541;-78
2021/08/17 00:40:30;;;;;;;2.53;0.52;;;11.90;99.90;;;;;;5115548;28;20076;-75
2021/08/17 00:42:55;;;;;;;6.68;0.20;;;11.80;99.90;;;;;;5115559;28;20023;-76
2021/08/17 00:45:26;;;;;;;10.10;0.47;;;11.80;99.90;;;;;;5097213;28;20437;-76
2021/08/17 00:47:55;;;;;;;4.50;0.32;;;11.80;99.90;;;;;;5115645;28;20073;-80
2021/08/17 00:50:22;;;;;;;7.63;0.63;;;11.70;99.90;;;;;;5115959;28;20055;-78
2021/08/17 00:52:48;;;;;;;8.57;0.43;;;11.70;99.90;;;;;;5115820;28;20059;-76
2021/08/17 00:55:14;;;;;;;5.70;0.20;;;11.70;99.90;;;;;;5115241;28;20073;-77
2021/08/17 00:57:41;;;;;;;5.10;0.47;;;11.70;99.90;;;;;;5115431;28;20028;-77
2021/08/17 01:00:08;;;;;;;6.82;0.22;;;11.70;99.90;;;;;;5115378;28;20026;-77
2021/08/17 01:02:33;;;;;;;3.63;0.10;;;11.70;99.90;;;;;;5114062;28;20024;-77
2021/08/17 01:05:00;;;;;;;8.52;0.50;;;11.80;99.90;;;;;;5097339;28;20077;-78
2021/08/17 01:07:26;;;;;;;2.92;0.10;;;11.70;99.90;;;;;;5115995;28;20027;-78
2021/08/17 01:09:52;;;;;;;2.05;0.17;;;11.70;99.90;;;;;;5097608;28;20027;-78
2021/08/17 01:12:17;;;;;;;4.28;0.35;;;11.70;99.90;;;;;;5097579;28;20076;-79
2021/08/17 01:14:43;;;;;;;6.75;0.47;;;11.60;99.90;;;;;;5115498;28;20051;-78
2021/08/17 01:17:08;;;;;;;4.28;0.10;;;11.60;99.90;;;;;;5097299;28;20020;-77
2021/08/17 01:19:36;;;;;;;7.20;0.57;;;11.50;99.90;;;;;;5097509;28;20039;-80
2021/08/17 01:22:01;;;;;;;6.00;0.52;;;11.50;99.90;;;;;;5097378;28;20019;-80
2021/08/17 01:24:27;;;;;;;2.30;0.03;;;11.40;99.90;;;;;;5114519;28;20031;-77
2021/08/17 01:26:52;;;;;;;1.50;0.10;;;11.40;99.90;;;;;;5114749;28;20016;-77
2021/08/17 01:29:20;;;;;;;5.82;0.15;;;11.30;99.90;;;;;;5114552;28;20088;-77
2021/08/17 01:31:46;;;;;;;3.17;0.32;;;11.30;99.90;;;;;;5114373;28;20034;-77
2021/08/17 01:34:12;;;;;;;7.72;0.10;;;11.30;99.90;;;;;;5114465;28;20027;-76
2021/08/17 01:36:38;;;;;;;4.57;0.00;;;11.30;99.90;;;;;;5114440;28;20480;-77
2021/08/17 01:39:04;;;;;;;3.40;0.10;;;11.20;99.90;;;;;;5114521;28;20023;-76
2021/08/17 01:41:30;;;;;;;6.97;0.68;;;11.20;99.90;;;;;;5114208;28;20385;-76
2021/08/17 01:43:55;;;;;;;3.05;0.63;;;11.20;99.90;;;;;;5114715;28;20011;-76
2021/08/17 01:46:21;;;;;;;3.47;0.30;;;11.20;99.90;;;;;;5095968;28;20016;-76
2021/08/17 01:48:47;;;;;;;2.30;0.63;;;11.20;99.90;;;;;;5095908;28;20446;-76
2021/08/17 01:51:13;;;;;;;11.52;0.32;;;11.20;99.90;;;;;;5114187;28;20123;-77
2021/08/17 01:53:39;;;;;;;7.13;0.10;;;11.20;99.90;;;;;;5114001;28;20057;-76
2021/08/17 01:56:07;;;;;;;4.18;0.63;;;11.20;99.90;;;;;;5114107;28;20439;-76
2021/08/17 01:58:33;;;;;;;6.00;0.10;;;11.20;99.90;;;;;;5113353;28;20038;-80
2021/08/17 02:00:59;;;;;;;4.63;0.47;;;11.20;99.90;;;;;;5096886;28;20590;-80
2021/08/17 02:03:25;;;;;;;3.72;0.00;;;11.10;99.90;;;;;;5096917;28;20016;-80
2021/08/17 02:05:50;;;;;;;3.22;0.00;;;11.20;99.90;;;;;;5115407;28;20031;-80
2021/08/17 02:08:16;;;;;;;3.05;0.20;;;11.20;99.90;;;;;;5115505;28;20027;-78
2021/08/17 02:10:44;;;;;;;4.45;0.03;;;11.20;99.90;;;;;;5114531;28;20028;-77
2021/08/17 02:13:10;;;;;;;5.30;0.20;;;11.20;99.90;;;;;;5114428;28;20054;-77
2021/08/17 02:15:35;;;;;;;4.50;0.25;;;11.20;99.90;;;;;;5113880;28;20493;-76
2021/08/17 02:18:01;;;;;;;3.33;0.15;;;11.20;99.90;;;;;;5113764;28;20100;-75
2021/08/17 02:20:27;;;;;;;3.80;0.20;;;11.30;99.90;;;;;;5113827;28;20058;-76
2021/08/17 02:22:52;;;;;;;7.65;0.10;;;11.40;99.90;;;;;;5113485;28;20015;-76
2021/08/17 02:25:18;;;;;;;4.68;0.30;;;11.40;99.90;;;;;;5095509;28;20023;-76
2021/08/17 02:27:43;;;;;;;2.83;0.17;;;11.40;99.90;;;;;;5113676;28;20080;-76
2021/08/17 02:30:09;;;;;;;3.63;0.25;;;11.50;99.90;;;;;;5114005;28;20020;-76
2021/08/17 02:32:35;;;;;;;1.50;0.28;;;11.60;99.90;;;;;;5112298;28;20407;-76
2021/08/17 02:35:04;;;;;;;3.35;0.15;;;11.70;99.90;;;;;;5095504;28;20496;-77
2021/08/17 02:37:30;;;;;;;5.57;0.00;;;11.80;99.90;;;;;;5112747;28;20070;-77
2021/08/17 02:39:56;;;;;;;4.68;0.60;;;11.90;99.90;;;;;;5095837;28;20047;-77
2021/08/17 02:42:21;;;;;;;4.13;0.10;;;11.90;99.90;;;;;;5113667;28;20012;-76
2021/08/17 02:44:47;;;;;;;3.10;0.00;;;12.00;99.90;;;;;;5114026;28;20035;-78
2021/08/17 02:47:12;;;;;;;3.60;0.38;;;12.10;99.90;;;;;;5095788;28;20389;-78
2021/08/17 02:49:38;;;;;;;4.93;0.30;;;12.10;99.90;;;;;;5095850;28;20035;-78
2021/08/17 02:52:05;;;;;;;7.90;0.10;;;12.20;99.90;;;;;;5095414;28;20031;-76
2021/08/17 02:54:39;;;;;;;1.83;0.20;;;12.30;99.90;;;;;;5113792;28;20030;-77
2021/08/17 02:57:07;;;;;;;2.35;0.20;;;12.30;99.90;;;;;;5114272;28;20024;-77
2021/08/17 02:59:33;;;;;;;4.82;0.20;;;12.30;99.90;;;;;;5095338;28;20031;-77
2021/08/17 03:01:59;;;;;;;2.05;0.30;;;12.40;99.90;;;;;;5113655;28;20098;-77
2021/08/17 03:04:25;;;;;;;3.13;0.45;;;12.40;99.90;;;;;;5095577;28;20592;-77
2021/08/17 03:06:51;;;;;;;5.13;0.95;;;12.40;99.90;;;;;;5095373;28;20023;-77
2021/08/17 03:09:16;;;;;;;5.20;0.55;;;12.50;99.90;;;;;;5113965;28;20120;-77
2021/08/17 03:11:41;;;;;;;10.23;1.30;;;12.50;99.90;;;;;;5095205;28;20026;-77
2021/08/17 03:14:07;;;;;;;5.30;0.10;;;12.50;99.90;;;;;;5095354;28;20027;-77
2021/08/17 03:16:33;;;;;;;3.28;0.10;;;13.00;99.90;;;;;;5113717;28;20027;-78
2021/08/17 03:19:00;;;;;;;0.93;0.28;;;12.60;99.90;;;;;;5114078;28;20103;-78
2021/08/17 03:21:26;;;;;;;5.38;0.30;;;12.60;99.90;;;;;;5113759;28;20030;-78
2021/08/17 03:23:51;;;;;;;1.65;0.08;;;12.60;99.90;;;;;;5095992;28;20016;-78
2021/08/17 03:26:17;;;;;;;6.15;0.10;;;12.60;99.90;;;;;;5095399;28;20022;-78
2021/08/17 03:28:42;;;;;;;6.57;0.77;;;12.60;99.90;;;;;;5113835;28;20031;-78
2021/08/17 03:31:08;;;;;;;7.05;0.80;;;12.60;99.90;;;;;;5095584;28;20114;-78
2021/08/17 03:33:36;;;;;;;5.80;0.40;;;12.60;99.90;;;;;;5095668;28;20477;-78
2021/08/17 03:36:05;;;;;;;3.22;0.25;;;12.70;99.90;;;;;;5098100;28;20504;-78
2021/08/17 03:38:32;;;;;;;4.60;0.20;;;12.70;99.90;;;;;;5099084;28;20412;-78
2021/08/17 03:40:58;;;;;;;3.55;0.65;;;12.70;99.90;;;;;;5117022;28;20031;-78
2021/08/17 03:43:25;;;;;;;2.72;0.10;;;12.70;99.90;;;;;;5099201;28;20023;-78
2021/08/17 03:45:51;;;;;;;3.25;0.10;;;12.70;99.90;;;;;;5117440;28;20481;-75
2021/08/17 03:48:18;;;;;;;3.33;0.10;;;12.70;99.90;;;;;;5116533;28;20491;-75
2021/08/17 03:50:44;;;;;;;5.72;0.63;;;12.60;99.90;;;;;;5098148;28;20100;-75
2021/08/17 03:53:10;;;;;;;9.85;0.80;;;12.60;99.90;;;;;;5116384;28;20526;-77
2021/08/17 03:55:35;;;;;;;1.50;0.40;;;12.60;99.90;;;;;;5098289;28;20027;-77
2021/08/17 03:58:01;;;;;;;3.67;0.38;;;12.60;99.90;;;;;;5116456;28;20381;-76
2021/08/17 04:00:29;;;;;;;2.83;0.10;;;12.60;99.90;;;;;;5116202;28;20114;-75
2021/08/17 04:02:56;;;;;;;2.42;0.47;;;12.50;99.90;;;;;;5098059;28;20020;-76
2021/08/17 04:05:22;;;;;;;5.25;0.20;;;12.50;99.90;;;;;;5116546;28;20014;-80
2021/08/17 04:07:48;;;;;;;6.30;1.02;;;12.40;99.90;;;;;;5098525;28;20055;-80
2021/08/17 04:10:14;;;;;;;3.55;0.15;;;12.30;99.90;;;;;;5098565;28;20046;-80
2021/08/17 04:12:40;;;;;;;5.40;0.38;;;12.20;99.90;;;;;;5098711;28;20420;-78
2021/08/17 04:15:08;;;;;;;2.47;0.15;;;12.20;99.90;;;;;;5098701;28;20020;-78
2021/08/17 04:17:35;;;;;;;4.60;0.20;;;12.10;99.90;;;;;;5098605;28;20477;-78
2021/08/17 04:20:02;;;;;;;6.27;0.30;;;12.20;99.90;;;;;;5116835;28;20024;-78
2021/08/17 04:22:28;;;;;;;5.43;0.47;;;12.10;99.90;;;;;;5115127;28;20265;-78
2021/08/17 04:24:53;;;;;;;1.83;0.20;;;12.10;99.90;;;;;;5099323;28;20027;-78
2021/08/17 04:27:19;;;;;;;2.88;0.10;;;12.10;99.90;;;;;;5098384;28;20410;-76
2021/08/17 04:29:44;;;;;;;3.50;0.17;;;12.10;99.90;;;;;;5115781;28;20106;-76
2021/08/17 04:32:11;;;;;;;5.82;0.50;;;12.20;99.90;;;;;;5097289;28;20484;-76
2021/08/17 04:34:37;;;;;;;2.63;0.20;;;12.20;99.90;;;;;;5116150;28;20015;-75
2021/08/17 04:37:03;;;;;;;5.13;0.50;;;12.20;99.90;;;;;;5115486;28;20030;-75
2021/08/17 04:39:29;;;;;;;4.82;0.85;;;12.30;99.90;;;;;;5098302;28;20118;-75
2021/08/17 04:41:54;;;;;;;2.03;0.20;;;12.20;99.90;;;;;;5097138;28;20057;-75
2021/08/17 04:44:20;;;;;;;4.60;0.25;;;12.30;99.90;;;;;;5115340;28;20110;-75
2021/08/17 04:46:45;;;;;;;3.90;0.10;;;12.30;99.90;;;;;;5115205;28;20020;-75
2021/08/17 04:49:11;;;;;;;2.85;0.45;;;12.40;99.90;;;;;;5097066;28;20027;-75
2021/08/17 04:51:39;;;;;;;5.13;0.50;;;12.40;99.90;;;;;;5115321;28;20047;-76
2021/08/17 04:54:05;;;;;;;4.15;0.13;;;12.40;99.90;;;;;;5115342;28;20016;-77
2021/08/17 04:56:31;;;;;;;4.47;0.55;;;12.50;99.90;;;;;;5097418;28;20114;-77
2021/08/17 04:58:56;;;;;;;2.90;0.52;;;12.60;99.90;;;;;;5097535;28;20051;-77
2021/08/17 05:01:22;;;;;;;6.20;0.80;;;12.60;99.90;;;;;;5115191;28;20032;-77
2021/08/17 05:03:48;;;;;;;4.30;0.45;;;12.70;99.90;;;;;;5115521;28;20077;-77
2021/08/17 05:06:13;;;;;;;5.43;0.47;;;12.80;99.90;;;;;;5097802;28;20023;-78
2021/08/17 05:08:39;;;;;;;3.65;0.60;;;12.90;99.90;;;;;;5116217;28;20069;-75
2021/08/17 05:11:05;;;;;;;5.90;0.80;;;13.00;99.90;;;;;;5114847;28;20024;-75
2021/08/17 05:13:30;;;;;;;3.30;0.65;;;13.10;99.90;;;;;;5114863;28;20538;-75
2021/08/17 05:15:56;;;;;;;6.45;1.55;;;13.20;99.90;;;;;;5096497;28;20026;-75
2021/08/17 05:18:21;;;;;;;7.00;0.38;;;13.40;99.90;;;;;;5096554;28;20507;-75
2021/08/17 05:20:48;;;;;;;4.55;0.60;;;13.50;99.90;;;;;;5096398;28;20027;-75
2021/08/17 05:23:13;;;;;;;5.18;0.60;;;13.60;99.90;;;;;;5096355;28;20011;-75
2021/08/17 05:25:39;;;;;;;7.65;0.85;;;13.70;99.90;;;;;;5114792;28;20031;-77
2021/08/17 05:28:04;;;;;;;5.25;0.90;;;13.90;99.90;;;;;;5114582;28;20015;-76
2021/08/17 05:30:30;;;;;;;3.92;0.68;;;14.00;99.90;;;;;;5114526;28;20106;-76
2021/08/17 05:32:56;;;;;;;6.50;1.02;;;14.00;99.90;;;;;;5114315;28;20031;-76
2021/08/17 05:35:21;;;;;;;4.32;0.70;;;14.10;99.90;;;;;;5096229;28;20032;-75
2021/08/17 05:37:47;;;;;;;5.15;1.23;;;14.20;99.90;;;;;;5115333;28;20028;-78
2021/08/17 05:40:13;;;;;;;8.95;1.20;;;14.20;99.90;;;;;;5114738;28;20385;-76
2021/08/17 05:42:38;;;;;;;5.03;1.60;;;14.20;99.90;;;;;;5114649;28;20020;-77
2021/08/17 05:45:04;;;;;;;5.07;1.17;;;14.30;99.90;;;;;;5114669;28;20027;-77
2021/08/17 05:47:31;;;;;;;6.60;1.35;;;14.30;99.90;;;;;;5109287;22;20430;-75
2021/08/17 05:49:57;;;;;;;8.70;2.00;;;14.30;99.90;;;;;;5075649;28;20020;-75
2021/08/17 05:52:22;;;;;;;5.78;1.27;;;14.40;99.90;;;;;;5104204;22;20142;-75
2021/08/17 05:54:48;;;;;;;6.97;2.33;;;14.50;99.90;;;;;;5095339;28;20020;-78
2021/08/17 05:57:13;;;;;;;9.30;2.05;;;14.50;99.90;;;;;;5075729;28;20031;-78
2021/08/17 05:59:39;;;;;;;6.50;1.90;;;14.60;99.90;;;;;;5075981;28;20079;-79
2021/08/17 06:02:05;;;;;;;10.57;1.98;;;14.60;99.90;;;;;;5094602;28;20028;-79
2021/08/17 06:04:30;;;;;;;8.30;1.80;;;14.60;99.90;;;;;;5094082;28;20048;-76
2021/08/17 06:06:56;;;;;;;5.07;1.90;;;14.70;99.90;;;;;;5075414;28;20028;-76
2021/08/17 06:09:22;;;;;;;11.05;3.13;;;14.70;99.90;;;;;;5075392;28;20016;-76
2021/08/17 06:11:52;;;;;;;7.82;2.35;;;14.80;99.90;;;;;;5093579;28;20032;-77
2021/08/17 06:14:18;;;;;;;6.43;2.15;;;14.90;99.90;;;;;;5093718;28;20016;-77
2021/08/17 06:16:45;;;;;;;7.78;2.17;;;15.00;99.90;;;;;;5075760;28;20020;-77
2021/08/17 06:19:11;;;;;;;11.45;3.15;;;15.00;99.90;;;;;;5093432;28;20031;-76
2021/08/17 06:21:40;;;;;;;8.93;1.83;;;15.00;99.90;;;;;;5093535;28;20408;-78
2021/08/17 06:24:07;;;;;;;9.27;2.10;;;15.00;99.90;;;;;;5075477;28;20016;-77
2021/08/17 06:26:33;;;;;;;9.40;2.65;;;15.00;99.90;;;;;;5094197;28;20381;-78
2021/08/17 06:28:59;;;;;;;10.15;2.67;;;15.00;99.90;;;;;;5094157;28;20020;-76
2021/08/17 06:31:25;;;;;;;9.00;2.45;;;15.00;99.90;;;;;;5093520;28;20111;-77
2021/08/17 06:33:54;;;;;;;9.82;1.90;;;15.10;99.90;;;;;;5094226;28;20521;-76
2021/08/17 06:36:21;;;;;;;11.02;2.28;;;15.20;99.90;;;;;;5075612;28;20024;-77
2021/08/17 06:38:51;;;;;;;8.70;2.67;;;15.20;99.90;;;;;;5075721;28;20017;-76
2021/08/17 06:41:18;;;;;;;8.93;2.75;;;15.30;99.90;;;;;;5093165;28;20024;-76
2021/08/17 06:43:44;;;;;;;8.18;2.78;;;15.40;99.90;;;;;;5093627;28;20069;-76
2021/08/17 06:46:10;;;;;;;9.98;2.97;;;15.50;99.90;;;;;;5075058;28;20079;-76
2021/08/17 06:48:37;;;;;;;13.60;3.58;;;15.50;99.90;;;;;;5093088;28;20465;-75
2021/08/17 06:51:03;;;;;;;9.25;3.17;;;15.60;99.90;;;;;;5093300;28;20031;-79
2021/08/17 06:53:29;;;;;;;13.32;2.85;;;15.60;99.90;;;;;;5075375;28;20024;-79
2021/08/17 06:55:55;;;;;;;7.55;2.08;;;15.70;99.90;;;;;;5093661;28;20095;-79
2021/08/17 06:58:20;;;;;;;9.15;2.92;;;15.80;99.90;;;;;;5075364;28;20028;-76
2021/08/17 07:00:47;;;;;;;10.65;2.65;;;15.80;99.90;;;;;;5093790;28;20035;-76
2021/08/17 07:03:14;;;;;;;14.48;3.05;;;15.90;99.90;;;;;;5092918;28;20032;-76
2021/08/17 07:05:42;;;;;;;13.63;3.47;;;16.00;99.90;;;;;;5075364;28;20020;-79
2021/08/17 07:08:08;;;;;;;14.03;3.37;;;16.10;99.90;;;;;;5093579;28;20020;-76
2021/08/17 07:10:34;;;;;;;14.60;4.18;;;16.10;99.90;;;;;;5096624;28;20020;-75
2021/08/17 07:13:00;;;;;;;14.10;3.15;;;16.20;99.90;;;;;;5097086;28;20028;-75
2021/08/17 07:15:25;;;;;;;13.65;4.95;;;16.20;99.90;;;;;;5096815;28;20028;-75
2021/08/17 07:17:52;;;;;;;9.32;3.03;;;16.30;99.90;;;;;;5078492;28;20123;-75
2021/08/17 07:20:17;;;;;;;14.18;3.72;;;16.40;99.90;;;;;;5097063;28;20099;-77
2021/08/17 07:22:43;;;;;;;10.18;3.13;;;16.50;99.90;;;;;;5079118;28;20043;-75
2021/08/17 07:25:09;;;;;;;10.90;3.10;;;16.60;99.90;;;;;;5097061;28;20048;-75
2021/08/17 07:27:35;;;;;;;16.30;4.05;;;16.60;99.90;;;;;;5097035;28;20029;-75
2021/08/17 07:30:01;;;;;;;13.43;3.60;;;16.50;99.90;;;;;;5096670;28;20043;-75
2021/08/17 07:32:26;;;;;;;11.70;3.55;;;16.50;99.90;;;;;;5078167;28;20024;-75
2021/08/17 07:34:52;;;;;;;14.45;3.17;;;16.50;99.90;;;;;;5096403;28;20117;-76
2021/08/17 07:37:18;;;;;;;9.13;2.95;;;16.50;99.90;;;;;;5078377;28;20031;-77
2021/08/17 07:39:43;;;;;;;10.68;4.05;;;16.40;99.90;;;;;;5078350;28;20028;-77
2021/08/17 07:42:09;;;;;;;11.57;3.25;;;16.40;99.90;;;;;;5096422;28;20478;-77
2021/08/17 07:44:34;;;;;;;8.43;2.85;;;16.40;99.90;;;;;;5078255;28;20024;-77
2021/08/17 07:47:01;;;;;;;10.55;3.20;;;16.50;99.90;;;;;;5078340;28;20024;-77
2021/08/17 07:49:27;;;;;;;13.52;3.38;;;16.50;99.90;;;;;;5096622;28;20089;-77
2021/08/17 07:51:52;;;;;;;9.60;2.45;;;16.60;99.90;;;;;;5078175;28;20036;-79
2021/08/17 07:54:19;;;;;;;11.27;2.67;;;16.70;99.90;;;;;;5078473;28;20020;-79
2021/08/17 07:56:46;;;;;;;16.85;3.67;;;16.80;99.90;;;;;;5096918;28;20034;-79
2021/08/17 07:59:11;;;;;;;12.88;2.75;;;16.90;99.90;;;;;;5078048;28;20024;-79
2021/08/17 08:01:37;;;;;;;17.20;4.93;;;16.90;99.90;;;;;;5078058;28;20045;-77
2021/08/17 08:04:02;;;;;;;12.75;3.10;;;17.00;99.90;;;;;;5077763;28;20023;-77
2021/08/17 08:06:28;;;;;;;12.48;3.42;;;17.00;99.90;;;;;;5078162;28;20495;-78
2021/08/17 08:08:53;;;;;;;12.90;3.83;;;17.00;99.90;;;;;;5078007;28;20016;-78
2021/08/17 08:11:19;;;;;;;10.30;2.35;;;16.90;99.90;;;;;;5096241;28;20024;-78
2021/08/17 08:13:44;;;;;;;10.98;3.05;;;16.80;99.90;;;;;;5096342;28;20077;-76
2021/08/17 08:16:10;;;;;;;10.52;3.83;;;16.90;99.90;;;;;;5078771;28;20035;-79
2021/08/17 08:18:36;;;;;;;11.32;2.95;;;16.90;99.90;;;;;;5097482;28;20024;-79
2021/08/17 08:21:01;;;;;;;11.50;3.10;;;16.90;99.90;;;;;;5077715;28;20436;-78
2021/08/17 08:23:27;;;;;;;12.48;2.42;;;16.90;99.90;;;;;;5096378;28;20012;-77
2021/08/17 08:25:52;;;;;;;11.65;2.95;;;16.80;99.90;;;;;;5077958;28;20111;-75
2021/08/17 08:28:20;;;;;;;8.48;2.47;;;16.90;99.90;;;;;;5095625;28;20098;-76
2021/08/17 08:30:46;;;;;;;9.27;2.55;;;16.80;99.90;;;;;;5077333;28;20062;-76
2021/08/17 08:33:11;;;;;;;6.72;2.00;;;16.90;99.90;;;;;;5095352;28;20020;-76
2021/08/17 08:35:37;;;;;;;7.90;2.10;;;17.00;99.90;;;;;;5095485;28;20059;-77
2021/08/17 08:38:02;;;;;;;10.80;1.85;;;17.20;99.90;;;;;;5095416;28;20032;-76
2021/08/17 08:40:29;;;;;;;10.05;1.80;;;17.40;99.90;;;;;;5095081;28;20028;-75
2021/08/17 08:42:55;;;;;;;5.15;1.42;;;17.50;99.90;;;;;;5076926;28;20020;-75
2021/08/17 08:45:21;;;;;;;10.50;2.60;;;17.60;99.90;;;;;;5095730;28;20573;-79
2021/08/17 08:47:47;;;;;;;7.55;1.50;;;17.70;99.90;;;;;;5077420;28;20114;-79
2021/08/17 08:50:18;;;;;;;5.28;1.13;;;17.60;99.90;;;;;;5077764;28;20028;-77
2021/08/17 08:52:44;;;;;;;5.40;1.33;;;17.50;99.90;;;;;;5076791;28;20071;-77
2021/08/17 08:55:11;;;;;;;6.47;1.80;;;17.40;99.90;;;;;;5077014;28;20053;-77
2021/08/17 08:57:37;;;;;;;7.28;1.00;;;17.30;99.90;;;;;;5077325;28;20089;-79
2021/08/17 09:00:05;;;;;;;5.82;1.05;;;17.10;99.90;;;;;;5077617;28;20048;-78
2021/08/17 09:02:32;;;;;;;6.50;1.23;;;17.00;99.90;;;;;;5095570;28;20023;-79
2021/08/17 09:04:59;;;;;;;7.65;1.20;;;17.00;99.90;;;;;;5077760;28;20028;-79
2021/08/17 09:07:39;;;;;;;12.13;2.25;;;17.00;99.90;;;;;;5077274;28;20031;-76
2021/08/17 09:10:11;;;;;;;3.60;1.08;;;17.00;99.90;;;;;;5094928;28;20533;-76
2021/08/17 09:12:43;;;;;;;5.38;0.77;;;17.10;99.90;;;;;;5076504;28;20024;-76
2021/08/17 09:15:12;;;;;;;4.32;1.00;;;17.20;99.90;;;;;;5094923;28;20039;-76
2021/08/17 09:17:40;;;;;;;5.80;1.05;;;17.20;99.90;;;;;;5094816;28;20367;-76
2021/08/17 09:20:07;;;;;;;4.13;1.33;;;17.20;99.90;;;;;;5094457;28;20107;-76
2021/08/17 09:22:33;;;;;;;4.78;1.15;;;17.30;99.90;;;;;;5076449;28;20016;-76
2021/08/17 09:25:03;;;;;;;3.10;0.85;;;17.30;99.90;;;;;;5094787;28;20374;-76
2021/08/17 09:27:34;;;;;;;3.65;0.93;;;17.40;99.90;;;;;;5094267;28;20150;-75
2021/08/17 09:30:16;;;;;;;5.30;0.82;;;17.30;99.90;;;;;;5095069;28;20028;-78
2021/08/17 09:32:56;;;;;;;3.65;0.63;;;17.30;99.90;;;;;;5077101;28;20431;-79
2021/08/17 09:35:24;;;;;;;3.92;0.73;;;17.30;99.90;;;;;;5077352;28;20032;-79
2021/08/17 09:38:13;;;;;;;2.65;1.08;;;17.20;99.90;;;;;;5118688;22;20126;-77
2021/08/17 09:40:39;;;;;;;;;;;17.10;99.90;;;;;;5115277;28;20027;-78
2021/08/17 09:43:18;;;;;;;5.60;0.73;;;17.20;99.90;;;;;;5096766;28;20361;-79
2021/08/17 09:45:46;;;;;;;7.38;0.90;;;17.10;99.90;;;;;;5097369;28;20019;-79
2021/08/17 09:48:13;;;;;;;5.07;0.90;;;17.20;99.90;;;;;;5115109;28;20015;-78
2021/08/17 09:50:41;;;;;;;3.78;0.60;;;17.20;99.90;;;;;;5115661;28;20023;-78
2021/08/17 09:53:12;;;;;;;5.53;0.77;;;17.20;99.90;;;;;;5115065;28;20019;-78
2021/08/17 09:55:52;;;;;;;5.07;0.60;;;17.20;99.90;;;;;;5115122;28;20444;-76
2021/08/17 09:58:23;;;;;;;4.15;0.95;;;17.10;99.90;;;;;;5114676;28;20022;-78
2021/08/17 10:00:55;;;;;;;2.33;0.57;;;17.00;99.90;;;;;;5114892;28;20051;-78
2021/08/17 10:03:22;;;;;;;4.32;0.50;;;17.00;99.90;;;;;;5114309;28;20011;-76
2021/08/17 10:05:49;;;;;;;3.28;0.73;;;17.00;99.90;;;;;;5114028;28;20115;-76
2021/08/17 10:08:16;;;;;;;6.03;0.40;;;17.00;99.90;;;;;;5095792;28;20118;-75
2021/08/17 10:10:46;;;;;;;3.40;0.40;;;17.00;99.90;;;;;;5113849;28;20040;-75
2021/08/17 10:13:14;;;;;;;4.53;0.82;;;17.10;99.90;;;;;;5114298;28;20023;-78
2021/08/17 10:15:42;;;;;;;2.92;0.50;;;17.00;99.90;;;;;;5113388;28;20027;-78
2021/08/17 10:18:09;;;;;;;2.67;1.05;;;17.30;99.90;;;;;;5113135;28;20027;-78
2021/08/17 10:20:37;;;;;;;4.20;0.43;;;17.20;99.90;;;;;;5114857;28;20113;-78
2021/08/17 10:23:03;;;;;;;3.20;0.60;;;17.20;99.90;;;;;;5114234;28;20022;-78
2021/08/17 10:25:42;;;;;;;3.70;0.60;;;17.20;99.90;;;;;;5114160;28;20035;-77
2021/08/17 10:28:26;;;;;;;2.15;1.00;;;17.30;99.90;;;;;;5114769;28;20064;-78
2021/08/17 10:30:52;;;;;;;3.97;0.50;;;17.30;99.90;;;;;;5113938;28;20099;-77
2021/08/17 10:33:39;;;;;;;4.47;0.70;;;17.20;99.90;;;;;;5096228;28;20444;-76
2021/08/17 10:36:05;;;;;;;3.33;0.55;;;17.20;99.90;;;;;;5095517;28;20024;-77
2021/08/17 10:38:31;;;;;;;4.90;0.50;;;17.10;99.90;;;;;;5113778;28;20493;-76
2021/08/17 10:40:56;;;;;;;5.32;0.75;;;17.10;99.90;;;;;;5113709;28;20027;-76
2021/08/17 10:43:31;;;;;;;2.55;0.50;;;17.00;99.90;;;;;;5113545;28;20526;-76
2021/08/17 10:46:05;;;;;;;4.95;0.35;;;17.00;99.90;;;;;;5099837;28;20016;-77
2021/08/17 10:48:46;;;;;;;2.72;0.47;;;16.90;99.90;;;;;;5117153;28;20400;-78
2021/08/17 10:51:17;;;;;;;0.90;0.35;;;16.80;99.90;;;;;;5118707;28;20052;-78
2021/08/17 10:53:44;;;;;;;3.22;0.45;;;16.70;99.90;;;;;;5117974;28;20058;-78
2021/08/17 10:56:16;;;;;;;4.38;0.88;;;16.50;99.90;;;;;;5099582;28;20027;-76
2021/08/17 10:58:43;;;;;;;1.05;0.30;;;16.40;99.90;;;;;;5117606;28;20500;-76
2021/08/17 11:01:09;;;;;;;3.30;0.68;;;16.20;99.90;;;;;;5118022;28;20020;-76
2021/08/17 11:03:43;;;;;;;1.77;0.47;;;16.10;99.90;;;;;;5117364;28;20377;-76
2021/08/17 11:06:10;;;;;;;4.75;0.70;;;16.00;99.90;;;;;;5118444;28;20102;-79
2021/08/17 11:08:38;;;;;;;2.58;0.77;;;15.90;99.90;;;;;;5118296;28;20528;-79
2021/08/17 11:11:17;;;;;;;3.95;0.90;;;15.80;99.90;;;;;;5116520;28;20477;-79
2021/08/17 11:14:10;;;;;;;4.85;0.95;;;15.90;99.90;;;;;;5117953;28;20023;-79
2021/08/17 11:16:41;;;;;;;3.42;0.90;;;16.00;99.90;;;;;;5099264;28;20465;-76
2021/08/17 11:19:06;;;;;;;3.78;0.85;;;16.00;99.90;;;;;;5099321;28;20020;-78
2021/08/17 11:21:38;;;;;;;2.72;0.57;;;16.00;99.90;;;;;;5117320;28;20073;-78
2021/08/17 11:24:09;;;;;;;3.38;0.57;;;16.00;99.90;;;;;;5117843;28;20069;-78
2021/08/17 11:26:36;;;;;;;1.42;0.30;;;15.90;99.90;;;;;;5117923;28;20389;-78
2021/08/17 11:29:01;;;;;;;2.90;0.57;;;15.90;99.90;;;;;;5117229;28;20020;-78
2021/08/17 11:31:27;;;;;;;3.80;0.70;;;15.90;99.90;;;;;;5099311;28;20027;-78
2021/08/17 11:34:13;;;;;;;2.38;0.47;;;15.90;99.90;;;;;;5099253;28;20481;-79
2021/08/17 11:36:38;;;;;;;3.42;0.40;;;15.90;99.90;;;;;;5117681;28;20015;-79
2021/08/17 11:39:43;;;;;;;3.30;0.70;;;15.80;99.90;;;;;;5118518;28;20363;-79
2021/08/17 11:42:19;;;;;;;2.60;0.40;;;15.80;99.90;;;;;;5111625;28;20496;-79
2021/08/17 11:44:55;;;;;;;3.25;0.55;;;15.80;99.90;;;;;;5117704;28;20054;-79
2021/08/17 11:47:22;;;;;;;2.13;1.05;;;15.90;99.90;;;;;;5115834;28;20376;-76
2021/08/17 11:50:02;;;;;;;2.72;0.60;;;15.80;99.90;;;;;;5098455;28;20020;-76
2021/08/17 11:52:35;;;;;;;4.72;0.93;;;15.70;99.90;;;;;;5098415;28;20065;-76
2021/08/17 11:55:10;;;;;;;5.70;0.75;;;15.60;99.90;;;;;;5116173;28;20047;-77
2021/08/17 11:57:49;;;;;;;2.80;0.73;;;15.60;99.90;;;;;;5117258;28;20157;-76
2021/08/17 12:00:20;;;;;;;2.20;0.70;;;15.70;99.90;;;;;;5116688;28;20354;-76
2021/08/17 12:03:03;;;;;;;1.73;0.60;;;15.70;99.90;;;;;;5116854;28;20020;-76
2021/08/17 12:05:31;;;;;;;2.42;0.70;;;15.70;99.90;;;;;;5098514;28;20019;-77
2021/08/17 12:07:57;;;;;;;2.40;0.75;;;15.80;99.90;;;;;;5117336;28;20486;-78
2021/08/17 12:10:26;;;;;;;3.17;1.00;;;15.80;99.90;;;;;;5116240;28;20016;-76
2021/08/17 12:13:02;;;;;;;2.10;1.10;;;15.80;99.90;;;;;;5097758;28;20020;-75
2021/08/17 12:15:27;;;;;;;5.13;1.20;;;15.90;99.90;;;;;;5098040;28;20031;-75
2021/08/17 12:18:01;;;;;;;2.72;0.63;;;15.90;99.90;;;;;;5097809;28;20107;-75
2021/08/17 12:20:27;;;;;;;2.38;1.38;;;15.90;99.90;;;;;;5116131;28;20388;-78
2021/08/17 12:22:52;;;;;;;2.38;0.50;;;15.90;99.90;;;;;;5097820;28;20031;-78
2021/08/17 12:25:23;;;;;;;3.50;0.63;;;16.00;99.90;;;;;;5115978;28;20053;-78
2021/08/17 12:27:59;;;;;;;3.95;1.17;;;16.00;99.90;;;;;;5116113;28;20197;-78
2021/08/17 12:30:25;;;;;;;4.95;1.10;;;16.00;99.90;;;;;;5117084;28;20051;-78
2021/08/17 12:32:53;;;;;;;5.30;1.63;;;16.00;99.90;;;;;;5116147;28;20026;-78
2021/08/17 12:35:31;;;;;;;4.28;0.98;;;16.10;99.90;;;;;;5115837;28;20020;-76
2021/08/17 12:38:13;;;;;;;2.92;0.98;;;16.00;99.90;;;;;;5114231;28;20392;-75
2021/08/17 12:40:50;;;;;;;4.75;1.40;;;16.00;99.90;;;;;;5115825;28;20069;-76
2021/08/17 12:43:26;;;;;;;3.13;1.60;;;16.10;99.90;;;;;;5115404;28;20023;-76
2021/08/17 12:45:53;;;;;;;4.25;0.90;;;16.10;99.90;;;;;;5115833;28;20019;-76
2021/08/17 12:48:20;;;;;;;3.92;1.35;;;16.00;99.90;;;;;;5115516;28;20406;-76